sensor_id;sensor_type;location;lat;lon;timestamp;P1;durP1;ratioP1;P2;durP2;ratioP2
72437;SDS011;60444;43.534;-5.674;2022-07-23T00:01:34;4.83;;;1.80;;
72437;SDS011;60444;43.534;-5.674;2022-07-23T00:04:00;7.47;;;2.08;;
72437;SDS011;60444;43.534;-5.674;2022-07-23T00:06:25;6.30;;;2.00;;
72437;SDS011;60444;43.534;-5.674;2022-07-23T00:08:53;8.68;;;1.92;;
72437;SDS011;60444;43.534;-5.674;2022-07-23T00:11:18;6.47;;;2.00;;
72437;SDS011;60444;43.534;-5.674;2022-07-23T00:13:44;7.93;;;2.00;;
72437;SDS011;60444;43.534;-5.674;2022-07-23T00:16:10;5.22;;;1.73;;
72437;SDS011;60444;43.534;-5.674;2022-07-23T00:18:35;4.37;;;1.97;;
72437;SDS011;60444;43.534;-5.674;2022-07-23T00:21:01;6.17;;;2.20;;
72437;SDS011;60444;43.534;-5.674;2022-07-23T00:23:26;5.82;;;1.73;;
72437;SDS011;60444;43.534;-5.674;2022-07-23T00:25:53;6.13;;;2.00;;
72437;SDS011;60444;43.534;-5.674;2022-07-23T00:28:19;6.10;;;2.10;;
72437;SDS011;60444;43.534;-5.674;2022-07-23T00:30:45;17.05;;;2.20;;
72437;SDS011;60444;43.534;-5.674;2022-07-23T00:33:11;5.30;;;2.10;;
72437;SDS011;60444;43.534;-5.674;2022-07-23T00:35:39;5.63;;;2.03;;
72437;SDS011;60444;43.534;-5.674;2022-07-23T00:38:06;5.97;;;1.80;;
72437;SDS011;60444;43.534;-5.674;2022-07-23T00:40:34;7.32;;;1.88;;
72437;SDS011;60444;43.534;-5.674;2022-07-23T00:43:00;5.90;;;2.08;;
72437;SDS011;60444;43.534;-5.674;2022-07-23T00:45:26;6.68;;;2.00;;
72437;SDS011;60444;43.534;-5.674;2022-07-23T00:47:52;8.07;;;1.87;;
72437;SDS011;60444;43.534;-5.674;2022-07-23T00:50:18;8.02;;;2.10;;
72437;SDS011;60444;43.534;-5.674;2022-07-23T00:52:44;7.80;;;2.03;;
72437;SDS011;60444;43.534;-5.674;2022-07-23T00:55:10;7.72;;;1.90;;
72437;SDS011;60444;43.534;-5.674;2022-07-23T00:57:37;5.80;;;2.10;;
72437;SDS011;60444;43.534;-5.674;2022-07-23T01:00:05;7.77;;;2.30;;
72437;SDS011;60444;43.534;-5.674;2022-07-23T01:02:32;6.60;;;2.17;;
72437;SDS011;60444;43.534;-5.674;2022-07-23T01:04:58;8.80;;;2.35;;
72437;SDS011;60444;43.534;-5.674;2022-07-23T01:07:23;5.70;;;2.50;;
72437;SDS011;60444;43.534;-5.674;2022-07-23T01:09:50;6.88;;;2.40;;
72437;SDS011;60444;43.534;-5.674;2022-07-23T01:12:16;7.65;;;2.47;;
72437;SDS011;60444;43.534;-5.674;2022-07-23T01:14:42;8.23;;;2.37;;
72437;SDS011;60444;43.534;-5.674;2022-07-23T01:17:07;7.13;;;2.30;;
72437;SDS011;60444;43.534;-5.674;2022-07-23T01:19:33;8.10;;;2.00;;
72437;SDS011;60444;43.534;-5.674;2022-07-23T01:21:59;6.67;;;2.13;;
72437;SDS011;60444;43.534;-5.674;2022-07-23T01:24:27;8.48;;;2.50;;
72437;SDS011;60444;43.534;-5.674;2022-07-23T01:26:53;6.07;;;1.97;;
72437;SDS011;60444;43.534;-5.674;2022-07-23T01:29:19;6.60;;;2.30;;
72437;SDS011;60444;43.534;-5.674;2022-07-23T01:31:46;6.63;;;2.20;;
72437;SDS011;60444;43.534;-5.674;2022-07-23T01:34:13;5.53;;;2.33;;
72437;SDS011;60444;43.534;-5.674;2022-07-23T01:36:39;6.57;;;1.73;;
72437;SDS011;60444;43.534;-5.674;2022-07-23T01:39:05;7.95;;;2.30;;
72437;SDS011;60444;43.534;-5.674;2022-07-23T01:41:31;8.15;;;2.38;;
72437;SDS011;60444;43.534;-5.674;2022-07-23T01:43:56;8.50;;;2.30;;
72437;SDS011;60444;43.534;-5.674;2022-07-23T01:46:22;7.72;;;2.50;;
72437;SDS011;60444;43.534;-5.674;2022-07-23T01:48:48;6.43;;;2.23;;
72437;SDS011;60444;43.534;-5.674;2022-07-23T01:51:14;6.38;;;1.90;;
72437;SDS011;60444;43.534;-5.674;2022-07-23T01:53:40;6.73;;;1.97;;
72437;SDS011;60444;43.534;-5.674;2022-07-23T01:56:05;7.00;;;2.80;;
72437;SDS011;60444;43.534;-5.674;2022-07-23T01:58:31;7.37;;;2.20;;
72437;SDS011;60444;43.534;-5.674;2022-07-23T02:00:57;6.97;;;1.75;;
72437;SDS011;60444;43.534;-5.674;2022-07-23T02:03:22;5.67;;;1.90;;
72437;SDS011;60444;43.534;-5.674;2022-07-23T02:05:48;6.78;;;2.30;;
72437;SDS011;60444;43.534;-5.674;2022-07-23T02:08:14;6.43;;;1.97;;
72437;SDS011;60444;43.534;-5.674;2022-07-23T02:10:40;6.53;;;1.90;;
72437;SDS011;60444;43.534;-5.674;2022-07-23T02:13:06;5.80;;;2.58;;
72437;SDS011;60444;43.534;-5.674;2022-07-23T02:15:31;7.40;;;2.53;;
72437;SDS011;60444;43.534;-5.674;2022-07-23T02:17:57;6.45;;;1.95;;
72437;SDS011;60444;43.534;-5.674;2022-07-23T02:20:22;5.27;;;2.00;;
72437;SDS011;60444;43.534;-5.674;2022-07-23T02:22:48;8.70;;;2.20;;
72437;SDS011;60444;43.534;-5.674;2022-07-23T02:25:14;6.05;;;2.00;;
72437;SDS011;60444;43.534;-5.674;2022-07-23T02:27:40;6.50;;;1.87;;
72437;SDS011;60444;43.534;-5.674;2022-07-23T02:30:06;5.90;;;2.00;;
72437;SDS011;60444;43.534;-5.674;2022-07-23T02:32:32;6.32;;;1.92;;
72437;SDS011;60444;43.534;-5.674;2022-07-23T02:34:58;7.03;;;1.92;;
72437;SDS011;60444;43.534;-5.674;2022-07-23T02:37:24;7.43;;;2.30;;
72437;SDS011;60444;43.534;-5.674;2022-07-23T02:39:50;6.72;;;2.33;;
72437;SDS011;60444;43.534;-5.674;2022-07-23T02:42:16;5.80;;;2.13;;
72437;SDS011;60444;43.534;-5.674;2022-07-23T02:44:41;6.25;;;1.90;;
72437;SDS011;60444;43.534;-5.674;2022-07-23T02:47:07;5.68;;;2.15;;
72437;SDS011;60444;43.534;-5.674;2022-07-23T02:49:33;6.83;;;2.40;;
72437;SDS011;60444;43.534;-5.674;2022-07-23T02:51:58;8.00;;;2.00;;
72437;SDS011;60444;43.534;-5.674;2022-07-23T02:54:24;5.80;;;2.13;;
72437;SDS011;60444;43.534;-5.674;2022-07-23T02:56:50;9.57;;;2.50;;
72437;SDS011;60444;43.534;-5.674;2022-07-23T02:59:16;7.57;;;2.20;;
72437;SDS011;60444;43.534;-5.674;2022-07-23T03:01:42;8.05;;;2.10;;
72437;SDS011;60444;43.534;-5.674;2022-07-23T03:04:08;7.38;;;2.05;;
72437;SDS011;60444;43.534;-5.674;2022-07-23T03:06:34;6.57;;;2.97;;
72437;SDS011;60444;43.534;-5.674;2022-07-23T03:08:59;6.10;;;2.10;;
72437;SDS011;60444;43.534;-5.674;2022-07-23T03:11:25;5.90;;;2.17;;
72437;SDS011;60444;43.534;-5.674;2022-07-23T03:13:53;8.85;;;2.10;;
72437;SDS011;60444;43.534;-5.674;2022-07-23T03:16:18;6.53;;;2.10;;
72437;SDS011;60444;43.534;-5.674;2022-07-23T03:18:44;5.73;;;2.10;;
72437;SDS011;60444;43.534;-5.674;2022-07-23T03:21:09;6.30;;;2.25;;
72437;SDS011;60444;43.534;-5.674;2022-07-23T03:23:35;7.33;;;2.70;;
72437;SDS011;60444;43.534;-5.674;2022-07-23T03:26:00;6.53;;;1.90;;
72437;SDS011;60444;43.534;-5.674;2022-07-23T03:28:26;5.53;;;1.88;;
72437;SDS011;60444;43.534;-5.674;2022-07-23T03:30:52;5.53;;;1.93;;
72437;SDS011;60444;43.534;-5.674;2022-07-23T03:33:18;7.72;;;2.40;;
72437;SDS011;60444;43.534;-5.674;2022-07-23T03:35:45;5.73;;;2.10;;
72437;SDS011;60444;43.534;-5.674;2022-07-23T03:38:11;5.47;;;2.03;;
72437;SDS011;60444;43.534;-5.674;2022-07-23T03:40:37;5.80;;;1.85;;
72437;SDS011;60444;43.534;-5.674;2022-07-23T03:43:03;7.82;;;2.33;;
72437;SDS011;60444;43.534;-5.674;2022-07-23T03:45:29;6.20;;;1.90;;
72437;SDS011;60444;43.534;-5.674;2022-07-23T03:47:56;6.63;;;2.20;;
72437;SDS011;60444;43.534;-5.674;2022-07-23T03:50:21;5.30;;;1.97;;
72437;SDS011;60444;43.534;-5.674;2022-07-23T03:52:50;6.45;;;2.00;;
72437;SDS011;60444;43.534;-5.674;2022-07-23T03:55:15;6.55;;;2.50;;
72437;SDS011;60444;43.534;-5.674;2022-07-23T03:57:41;5.77;;;2.03;;
72437;SDS011;60444;43.534;-5.674;2022-07-23T04:00:07;5.67;;;2.03;;
72437;SDS011;60444;43.534;-5.674;2022-07-23T04:02:37;5.00;;;1.70;;
72437;SDS011;60444;43.534;-5.674;2022-07-23T04:05:04;4.93;;;1.85;;
72437;SDS011;60444;43.534;-5.674;2022-07-23T04:07:30;6.32;;;2.10;;
72437;SDS011;60444;43.534;-5.674;2022-07-23T04:09:55;6.03;;;2.37;;
72437;SDS011;60444;43.534;-5.674;2022-07-23T04:12:22;5.63;;;2.00;;
72437;SDS011;60444;43.534;-5.674;2022-07-23T04:14:48;4.40;;;2.03;;
72437;SDS011;60444;43.534;-5.674;2022-07-23T04:17:14;6.27;;;2.10;;
72437;SDS011;60444;43.534;-5.674;2022-07-23T04:19:40;6.35;;;2.05;;
72437;SDS011;60444;43.534;-5.674;2022-07-23T04:22:07;5.93;;;1.77;;
72437;SDS011;60444;43.534;-5.674;2022-07-23T04:24:48;5.18;;;1.73;;
72437;SDS011;60444;43.534;-5.674;2022-07-23T04:27:15;6.43;;;2.05;;
72437;SDS011;60444;43.534;-5.674;2022-07-23T04:29:41;6.05;;;2.00;;
72437;SDS011;60444;43.534;-5.674;2022-07-23T04:32:07;4.50;;;1.90;;
72437;SDS011;60444;43.534;-5.674;2022-07-23T04:34:32;6.65;;;2.10;;
72437;SDS011;60444;43.534;-5.674;2022-07-23T04:36:58;7.93;;;1.90;;
72437;SDS011;60444;43.534;-5.674;2022-07-23T04:39:24;5.47;;;1.90;;
72437;SDS011;60444;43.534;-5.674;2022-07-23T04:41:49;5.57;;;1.70;;
72437;SDS011;60444;43.534;-5.674;2022-07-23T04:44:15;7.37;;;2.00;;
72437;SDS011;60444;43.534;-5.674;2022-07-23T04:46:40;4.25;;;1.67;;
72437;SDS011;60444;43.534;-5.674;2022-07-23T04:49:06;4.10;;;1.60;;
72437;SDS011;60444;43.534;-5.674;2022-07-23T04:51:31;5.60;;;2.13;;
72437;SDS011;60444;43.534;-5.674;2022-07-23T04:53:57;4.50;;;1.58;;
72437;SDS011;60444;43.534;-5.674;2022-07-23T04:56:23;5.17;;;1.90;;
72437;SDS011;60444;43.534;-5.674;2022-07-23T04:58:48;4.72;;;1.98;;
72437;SDS011;60444;43.534;-5.674;2022-07-23T05:01:14;7.43;;;1.93;;
72437;SDS011;60444;43.534;-5.674;2022-07-23T05:03:39;5.43;;;1.77;;
72437;SDS011;60444;43.534;-5.674;2022-07-23T05:06:05;4.53;;;1.67;;
72437;SDS011;60444;43.534;-5.674;2022-07-23T05:08:31;4.37;;;1.60;;
72437;SDS011;60444;43.534;-5.674;2022-07-23T05:10:56;4.80;;;1.67;;
72437;SDS011;60444;43.534;-5.674;2022-07-23T05:13:22;4.73;;;1.40;;
72437;SDS011;60444;43.534;-5.674;2022-07-23T05:15:47;6.00;;;1.70;;
72437;SDS011;60444;43.534;-5.674;2022-07-23T05:18:13;3.92;;;1.30;;
72437;SDS011;60444;43.534;-5.674;2022-07-23T05:20:39;5.23;;;1.80;;
72437;SDS011;60444;43.534;-5.674;2022-07-23T05:23:04;3.42;;;1.20;;
72437;SDS011;60444;43.534;-5.674;2022-07-23T05:25:30;5.80;;;1.67;;
72437;SDS011;60444;43.534;-5.674;2022-07-23T05:27:55;5.47;;;1.60;;
72437;SDS011;60444;43.534;-5.674;2022-07-23T05:30:21;4.20;;;1.60;;
72437;SDS011;60444;43.534;-5.674;2022-07-23T05:32:46;4.80;;;1.77;;
72437;SDS011;60444;43.534;-5.674;2022-07-23T05:35:12;4.43;;;1.50;;
72437;SDS011;60444;43.534;-5.674;2022-07-23T05:37:41;4.03;;;1.60;;
72437;SDS011;60444;43.534;-5.674;2022-07-23T05:40:07;4.30;;;1.65;;
72437;SDS011;60444;43.534;-5.674;2022-07-23T05:42:34;4.67;;;1.70;;
72437;SDS011;60444;43.534;-5.674;2022-07-23T05:45:00;4.68;;;1.77;;
72437;SDS011;60444;43.534;-5.674;2022-07-23T05:47:26;4.35;;;1.52;;
72437;SDS011;60444;43.534;-5.674;2022-07-23T05:49:52;4.87;;;1.80;;
72437;SDS011;60444;43.534;-5.674;2022-07-23T05:52:17;5.33;;;1.87;;
72437;SDS011;60444;43.534;-5.674;2022-07-23T05:54:43;6.13;;;1.90;;
72437;SDS011;60444;43.534;-5.674;2022-07-23T05:57:08;5.53;;;1.90;;
72437;SDS011;60444;43.534;-5.674;2022-07-23T05:59:34;4.87;;;1.40;;
72437;SDS011;60444;43.534;-5.674;2022-07-23T06:01:59;3.88;;;1.55;;
72437;SDS011;60444;43.534;-5.674;2022-07-23T06:04:25;5.20;;;1.53;;
72437;SDS011;60444;43.534;-5.674;2022-07-23T06:06:50;4.67;;;1.70;;
72437;SDS011;60444;43.534;-5.674;2022-07-23T06:09:16;4.45;;;1.77;;
72437;SDS011;60444;43.534;-5.674;2022-07-23T06:11:42;6.07;;;1.70;;
72437;SDS011;60444;43.534;-5.674;2022-07-23T06:14:07;7.72;;;2.15;;
72437;SDS011;60444;43.534;-5.674;2022-07-23T06:16:33;5.30;;;1.80;;
72437;SDS011;60444;43.534;-5.674;2022-07-23T06:18:59;4.07;;;1.50;;
72437;SDS011;60444;43.534;-5.674;2022-07-23T06:21:24;6.43;;;1.67;;
72437;SDS011;60444;43.534;-5.674;2022-07-23T06:23:50;4.57;;;1.50;;
72437;SDS011;60444;43.534;-5.674;2022-07-23T06:26:15;7.03;;;1.87;;
72437;SDS011;60444;43.534;-5.674;2022-07-23T06:28:41;6.87;;;2.07;;
72437;SDS011;60444;43.534;-5.674;2022-07-23T06:31:07;4.45;;;1.40;;
72437;SDS011;60444;43.534;-5.674;2022-07-23T06:33:33;4.67;;;1.80;;
72437;SDS011;60444;43.534;-5.674;2022-07-23T06:35:58;4.63;;;1.48;;
72437;SDS011;60444;43.534;-5.674;2022-07-23T06:38:24;5.50;;;1.97;;
72437;SDS011;60444;43.534;-5.674;2022-07-23T06:40:49;4.93;;;1.70;;
72437;SDS011;60444;43.534;-5.674;2022-07-23T06:43:15;6.03;;;2.00;;
72437;SDS011;60444;43.534;-5.674;2022-07-23T06:45:41;4.65;;;1.60;;
72437;SDS011;60444;43.534;-5.674;2022-07-23T06:48:06;6.80;;;1.60;;
72437;SDS011;60444;43.534;-5.674;2022-07-23T06:50:32;5.83;;;1.53;;
72437;SDS011;60444;43.534;-5.674;2022-07-23T06:52:57;4.60;;;1.40;;
72437;SDS011;60444;43.534;-5.674;2022-07-23T06:55:23;4.67;;;1.53;;
72437;SDS011;60444;43.534;-5.674;2022-07-23T06:57:49;5.93;;;1.57;;
72437;SDS011;60444;43.534;-5.674;2022-07-23T07:00:14;4.95;;;1.55;;
72437;SDS011;60444;43.534;-5.674;2022-07-23T07:02:40;4.63;;;1.50;;
72437;SDS011;60444;43.534;-5.674;2022-07-23T07:05:05;5.45;;;1.27;;
72437;SDS011;60444;43.534;-5.674;2022-07-23T07:07:31;5.70;;;1.47;;
72437;SDS011;60444;43.534;-5.674;2022-07-23T07:09:57;4.75;;;1.83;;
72437;SDS011;60444;43.534;-5.674;2022-07-23T07:12:23;4.67;;;1.70;;
72437;SDS011;60444;43.534;-5.674;2022-07-23T07:14:48;5.05;;;1.90;;
72437;SDS011;60444;43.534;-5.674;2022-07-23T07:17:14;5.50;;;1.70;;
72437;SDS011;60444;43.534;-5.674;2022-07-23T07:19:40;4.20;;;1.35;;
72437;SDS011;60444;43.534;-5.674;2022-07-23T07:22:06;4.60;;;1.80;;
72437;SDS011;60444;43.534;-5.674;2022-07-23T07:24:31;5.90;;;1.98;;
72437;SDS011;60444;43.534;-5.674;2022-07-23T07:26:57;5.23;;;1.63;;
72437;SDS011;60444;43.534;-5.674;2022-07-23T07:29:23;5.67;;;1.57;;
72437;SDS011;60444;43.534;-5.674;2022-07-23T07:31:48;3.70;;;1.53;;
72437;SDS011;60444;43.534;-5.674;2022-07-23T07:34:14;4.37;;;1.50;;
72437;SDS011;60444;43.534;-5.674;2022-07-23T07:36:39;6.47;;;1.40;;
72437;SDS011;60444;43.534;-5.674;2022-07-23T07:39:05;4.32;;;1.30;;
72437;SDS011;60444;43.534;-5.674;2022-07-23T07:41:32;5.70;;;1.73;;
72437;SDS011;60444;43.534;-5.674;2022-07-23T07:43:57;4.10;;;1.27;;
72437;SDS011;60444;43.534;-5.674;2022-07-23T07:46:23;6.83;;;1.57;;
72437;SDS011;60444;43.534;-5.674;2022-07-23T07:48:49;4.82;;;1.50;;
72437;SDS011;60444;43.534;-5.674;2022-07-23T07:51:15;5.25;;;1.33;;
72437;SDS011;60444;43.534;-5.674;2022-07-23T07:53:42;4.90;;;1.80;;
72437;SDS011;60444;43.534;-5.674;2022-07-23T07:56:07;5.45;;;1.60;;
72437;SDS011;60444;43.534;-5.674;2022-07-23T07:58:33;5.90;;;1.42;;
72437;SDS011;60444;43.534;-5.674;2022-07-23T08:00:59;5.57;;;1.27;;
72437;SDS011;60444;43.534;-5.674;2022-07-23T08:03:25;5.00;;;1.70;;
72437;SDS011;60444;43.534;-5.674;2022-07-23T08:05:51;5.18;;;1.27;;
72437;SDS011;60444;43.534;-5.674;2022-07-23T08:08:17;4.70;;;1.35;;
72437;SDS011;60444;43.534;-5.674;2022-07-23T08:10:43;5.77;;;1.60;;
72437;SDS011;60444;43.534;-5.674;2022-07-23T08:13:11;7.83;;;1.40;;
72437;SDS011;60444;43.534;-5.674;2022-07-23T08:15:41;6.80;;;1.67;;
72437;SDS011;60444;43.534;-5.674;2022-07-23T08:18:08;6.70;;;1.60;;
72437;SDS011;60444;43.534;-5.674;2022-07-23T08:20:34;6.18;;;1.40;;
72437;SDS011;60444;43.534;-5.674;2022-07-23T08:23:02;5.13;;;1.50;;
72437;SDS011;60444;43.534;-5.674;2022-07-23T08:25:30;5.80;;;1.60;;
72437;SDS011;60444;43.534;-5.674;2022-07-23T08:27:59;4.47;;;1.80;;
72437;SDS011;60444;43.534;-5.674;2022-07-23T08:30:26;4.30;;;1.30;;
72437;SDS011;60444;43.534;-5.674;2022-07-23T08:35:21;4.70;;;1.13;;
72437;SDS011;60444;43.534;-5.674;2022-07-23T08:37:52;5.80;;;1.40;;
72437;SDS011;60444;43.534;-5.674;2022-07-23T08:40:18;6.43;;;1.50;;
72437;SDS011;60444;43.534;-5.674;2022-07-23T08:42:45;6.28;;;1.38;;
72437;SDS011;60444;43.534;-5.674;2022-07-23T08:45:13;7.00;;;2.10;;
72437;SDS011;60444;43.534;-5.674;2022-07-23T08:47:41;5.80;;;1.40;;
72437;SDS011;60444;43.534;-5.674;2022-07-23T08:50:08;5.15;;;1.45;;
72437;SDS011;60444;43.534;-5.674;2022-07-23T08:52:36;5.53;;;1.80;;
72437;SDS011;60444;43.534;-5.674;2022-07-23T08:55:02;4.30;;;1.30;;
72437;SDS011;60444;43.534;-5.674;2022-07-23T08:57:28;4.15;;;1.30;;
72437;SDS011;60444;43.534;-5.674;2022-07-23T08:59:54;5.03;;;1.70;;
72437;SDS011;60444;43.534;-5.674;2022-07-23T09:02:20;4.70;;;1.27;;
72437;SDS011;60444;43.534;-5.674;2022-07-23T09:04:45;6.00;;;1.53;;
72437;SDS011;60444;43.534;-5.674;2022-07-23T09:07:11;5.70;;;1.60;;
72437;SDS011;60444;43.534;-5.674;2022-07-23T09:09:36;6.07;;;1.67;;
72437;SDS011;60444;43.534;-5.674;2022-07-23T09:12:03;6.47;;;1.90;;
72437;SDS011;60444;43.534;-5.674;2022-07-23T09:14:39;6.75;;;1.92;;
72437;SDS011;60444;43.534;-5.674;2022-07-23T09:17:13;4.88;;;1.73;;
72437;SDS011;60444;43.534;-5.674;2022-07-23T09:19:41;6.45;;;1.35;;
72437;SDS011;60444;43.534;-5.674;2022-07-23T09:22:23;4.80;;;1.30;;
72437;SDS011;60444;43.534;-5.674;2022-07-23T09:27:56;5.90;;;1.60;;
72437;SDS011;60444;43.534;-5.674;2022-07-23T09:30:27;6.47;;;1.90;;
72437;SDS011;60444;43.534;-5.674;2022-07-23T09:33:11;6.60;;;1.55;;
72437;SDS011;60444;43.534;-5.674;2022-07-23T09:35:52;5.73;;;1.77;;
72437;SDS011;60444;43.534;-5.674;2022-07-23T09:38:20;6.07;;;1.50;;
72437;SDS011;60444;43.534;-5.674;2022-07-23T09:41:05;6.55;;;1.85;;
72437;SDS011;60444;43.534;-5.674;2022-07-23T09:43:32;5.68;;;1.88;;
72437;SDS011;60444;43.534;-5.674;2022-07-23T09:48:48;6.28;;;1.77;;
72437;SDS011;60444;43.534;-5.674;2022-07-23T09:51:14;6.70;;;1.67;;
72437;SDS011;60444;43.534;-5.674;2022-07-23T09:53:53;5.80;;;1.40;;
72437;SDS011;60444;43.534;-5.674;2022-07-23T09:56:18;8.37;;;1.80;;
72437;SDS011;60444;43.534;-5.674;2022-07-23T09:58:45;5.15;;;1.40;;
72437;SDS011;60444;43.534;-5.674;2022-07-23T10:01:15;4.00;;;1.30;;
72437;SDS011;60444;43.534;-5.674;2022-07-23T10:03:42;4.47;;;1.30;;
72437;SDS011;60444;43.534;-5.674;2022-07-23T10:06:10;6.03;;;1.45;;
72437;SDS011;60444;43.534;-5.674;2022-07-23T10:08:39;5.47;;;1.33;;
72437;SDS011;60444;43.534;-5.674;2022-07-23T10:11:06;5.68;;;1.17;;
72437;SDS011;60444;43.534;-5.674;2022-07-23T10:13:32;6.25;;;1.50;;
72437;SDS011;60444;43.534;-5.674;2022-07-23T10:16:18;5.13;;;1.17;;
72437;SDS011;60444;43.534;-5.674;2022-07-23T10:18:45;4.85;;;1.30;;
72437;SDS011;60444;43.534;-5.674;2022-07-23T10:21:12;5.15;;;1.65;;
72437;SDS011;60444;43.534;-5.674;2022-07-23T10:23:48;3.60;;;1.23;;
72437;SDS011;60444;43.534;-5.674;2022-07-23T10:26:32;6.65;;;1.88;;
72437;SDS011;60444;43.534;-5.674;2022-07-23T10:29:11;6.50;;;1.60;;
72437;SDS011;60444;43.534;-5.674;2022-07-23T10:32:44;4.43;;;1.50;;
72437;SDS011;60444;43.534;-5.674;2022-07-23T10:35:18;5.45;;;1.60;;
72437;SDS011;60444;43.534;-5.674;2022-07-23T10:37:52;6.70;;;1.70;;
72437;SDS011;60444;43.534;-5.674;2022-07-23T10:40:32;4.95;;;1.50;;
72437;SDS011;60444;43.534;-5.674;2022-07-23T10:42:58;5.20;;;1.23;;
72437;SDS011;60444;43.534;-5.674;2022-07-23T10:48:11;4.13;;;1.42;;
72437;SDS011;60444;43.534;-5.674;2022-07-23T10:50:37;6.23;;;1.53;;
72437;SDS011;60444;43.534;-5.674;2022-07-23T10:57:57;6.17;;;1.40;;
72437;SDS011;60444;43.534;-5.674;2022-07-23T11:00:23;5.23;;;1.27;;
72437;SDS011;60444;43.534;-5.674;2022-07-23T11:02:51;5.57;;;1.45;;
72437;SDS011;60444;43.534;-5.674;2022-07-23T11:05:20;4.80;;;1.30;;
72437;SDS011;60444;43.534;-5.674;2022-07-23T11:10:35;5.28;;;1.30;;
72437;SDS011;60444;43.534;-5.674;2022-07-23T11:16:08;5.70;;;1.40;;
72437;SDS011;60444;43.534;-5.674;2022-07-23T11:32:17;7.10;;;1.10;;
72437;SDS011;60444;43.534;-5.674;2022-07-23T11:34:45;5.05;;;1.50;;
72437;SDS011;60444;43.534;-5.674;2022-07-23T11:39:59;5.17;;;1.10;;
72437;SDS011;60444;43.534;-5.674;2022-07-23T11:42:26;6.20;;;1.52;;
72437;SDS011;60444;43.534;-5.674;2022-07-23T11:44:53;8.00;;;1.50;;
72437;SDS011;60444;43.534;-5.674;2022-07-23T11:47:23;4.90;;;1.35;;
72437;SDS011;60444;43.534;-5.674;2022-07-23T11:50:00;4.83;;;1.40;;
72437;SDS011;60444;43.534;-5.674;2022-07-23T11:52:31;6.55;;;1.55;;
72437;SDS011;60444;43.534;-5.674;2022-07-23T11:54:58;5.55;;;1.40;;
72437;SDS011;60444;43.534;-5.674;2022-07-23T11:57:29;5.82;;;1.20;;
72437;SDS011;60444;43.534;-5.674;2022-07-23T11:59:57;6.83;;;1.63;;
72437;SDS011;60444;43.534;-5.674;2022-07-23T12:02:28;7.30;;;3.75;;
72437;SDS011;60444;43.534;-5.674;2022-07-23T12:04:54;7.97;;;2.35;;
72437;SDS011;60444;43.534;-5.674;2022-07-23T12:09:58;5.13;;;1.77;;
72437;SDS011;60444;43.534;-5.674;2022-07-23T12:12:45;5.55;;;1.45;;
72437;SDS011;60444;43.534;-5.674;2022-07-23T12:15:14;7.53;;;1.85;;
72437;SDS011;60444;43.534;-5.674;2022-07-23T12:17:43;6.33;;;1.53;;
72437;SDS011;60444;43.534;-5.674;2022-07-23T12:20:11;6.95;;;2.15;;
72437;SDS011;60444;43.534;-5.674;2022-07-23T12:22:40;6.95;;;1.98;;
72437;SDS011;60444;43.534;-5.674;2022-07-23T12:25:18;7.43;;;1.80;;
72437;SDS011;60444;43.534;-5.674;2022-07-23T12:27:46;5.45;;;1.40;;
72437;SDS011;60444;43.534;-5.674;2022-07-23T12:30:27;5.93;;;1.27;;
72437;SDS011;60444;43.534;-5.674;2022-07-23T12:32:58;5.68;;;1.30;;
72437;SDS011;60444;43.534;-5.674;2022-07-23T12:35:30;7.85;;;2.08;;
72437;SDS011;60444;43.534;-5.674;2022-07-23T12:38:01;5.97;;;1.77;;
72437;SDS011;60444;43.534;-5.674;2022-07-23T12:40:32;6.55;;;1.70;;
72437;SDS011;60444;43.534;-5.674;2022-07-23T12:43:08;8.60;;;1.90;;
72437;SDS011;60444;43.534;-5.674;2022-07-23T12:48:19;5.57;;;1.95;;
72437;SDS011;60444;43.534;-5.674;2022-07-23T12:50:50;6.03;;;2.10;;
72437;SDS011;60444;43.534;-5.674;2022-07-23T12:53:30;6.47;;;2.53;;
72437;SDS011;60444;43.534;-5.674;2022-07-23T12:55:58;5.53;;;1.90;;
72437;SDS011;60444;43.534;-5.674;2022-07-23T12:58:26;6.18;;;2.00;;
72437;SDS011;60444;43.534;-5.674;2022-07-23T13:00:59;6.47;;;2.47;;
72437;SDS011;60444;43.534;-5.674;2022-07-23T13:05:55;7.70;;;2.77;;
72437;SDS011;60444;43.534;-5.674;2022-07-23T13:08:21;7.10;;;2.47;;
72437;SDS011;60444;43.534;-5.674;2022-07-23T13:10:47;8.30;;;2.78;;
72437;SDS011;60444;43.534;-5.674;2022-07-23T13:13:16;8.45;;;2.33;;
72437;SDS011;60444;43.534;-5.674;2022-07-23T13:15:42;6.82;;;2.33;;
72437;SDS011;60444;43.534;-5.674;2022-07-23T13:18:08;7.63;;;2.20;;
72437;SDS011;60444;43.534;-5.674;2022-07-23T13:20:34;8.23;;;2.50;;
72437;SDS011;60444;43.534;-5.674;2022-07-23T13:23:00;7.27;;;2.20;;
72437;SDS011;60444;43.534;-5.674;2022-07-23T13:25:26;8.07;;;2.40;;
72437;SDS011;60444;43.534;-5.674;2022-07-23T13:27:52;6.60;;;1.95;;
72437;SDS011;60444;43.534;-5.674;2022-07-23T13:30:17;6.75;;;2.00;;
72437;SDS011;60444;43.534;-5.674;2022-07-23T13:32:43;6.70;;;2.03;;
72437;SDS011;60444;43.534;-5.674;2022-07-23T13:35:09;7.30;;;2.03;;
72437;SDS011;60444;43.534;-5.674;2022-07-23T13:37:37;7.18;;;2.00;;
72437;SDS011;60444;43.534;-5.674;2022-07-23T13:40:03;8.95;;;2.70;;
72437;SDS011;60444;43.534;-5.674;2022-07-23T13:42:29;9.17;;;2.17;;
72437;SDS011;60444;43.534;-5.674;2022-07-23T13:44:55;7.60;;;2.80;;
72437;SDS011;60444;43.534;-5.674;2022-07-23T13:47:20;7.57;;;2.30;;
72437;SDS011;60444;43.534;-5.674;2022-07-23T13:49:46;6.07;;;2.40;;
72437;SDS011;60444;43.534;-5.674;2022-07-23T13:52:11;6.97;;;1.97;;
72437;SDS011;60444;43.534;-5.674;2022-07-23T13:54:37;7.67;;;2.33;;
72437;SDS011;60444;43.534;-5.674;2022-07-23T13:57:02;6.97;;;1.95;;
72437;SDS011;60444;43.534;-5.674;2022-07-23T13:59:28;6.87;;;2.47;;
72437;SDS011;60444;43.534;-5.674;2022-07-23T14:01:54;6.95;;;2.20;;
72437;SDS011;60444;43.534;-5.674;2022-07-23T14:04:20;7.43;;;2.00;;
72437;SDS011;60444;43.534;-5.674;2022-07-23T14:06:46;7.40;;;1.77;;
72437;SDS011;60444;43.534;-5.674;2022-07-23T14:09:12;8.07;;;2.03;;
72437;SDS011;60444;43.534;-5.674;2022-07-23T14:11:37;6.70;;;2.00;;
72437;SDS011;60444;43.534;-5.674;2022-07-23T14:14:06;6.65;;;2.20;;
72437;SDS011;60444;43.534;-5.674;2022-07-23T14:16:31;6.40;;;2.00;;
72437;SDS011;60444;43.534;-5.674;2022-07-23T14:18:57;5.43;;;1.70;;
72437;SDS011;60444;43.534;-5.674;2022-07-23T14:21:23;7.37;;;2.30;;
72437;SDS011;60444;43.534;-5.674;2022-07-23T14:23:48;5.75;;;2.00;;
72437;SDS011;60444;43.534;-5.674;2022-07-23T14:26:14;6.10;;;2.10;;
72437;SDS011;60444;43.534;-5.674;2022-07-23T14:28:39;8.27;;;1.97;;
72437;SDS011;60444;43.534;-5.674;2022-07-23T14:31:05;5.18;;;1.80;;
72437;SDS011;60444;43.534;-5.674;2022-07-23T14:33:30;5.73;;;1.80;;
72437;SDS011;60444;43.534;-5.674;2022-07-23T14:35:56;5.67;;;2.00;;
72437;SDS011;60444;43.534;-5.674;2022-07-23T14:38:23;6.38;;;1.90;;
72437;SDS011;60444;43.534;-5.674;2022-07-23T14:40:48;6.55;;;1.63;;
72437;SDS011;60444;43.534;-5.674;2022-07-23T14:43:14;8.40;;;1.90;;
72437;SDS011;60444;43.534;-5.674;2022-07-23T14:45:39;8.93;;;2.20;;
72437;SDS011;60444;43.534;-5.674;2022-07-23T14:48:07;5.35;;;1.70;;
72437;SDS011;60444;43.534;-5.674;2022-07-23T14:50:33;7.30;;;2.13;;
72437;SDS011;60444;43.534;-5.674;2022-07-23T14:52:58;7.20;;;2.28;;
72437;SDS011;60444;43.534;-5.674;2022-07-23T14:55:24;6.00;;;1.70;;
72437;SDS011;60444;43.534;-5.674;2022-07-23T14:57:50;7.30;;;1.80;;
72437;SDS011;60444;43.534;-5.674;2022-07-23T15:00:16;5.63;;;1.85;;
72437;SDS011;60444;43.534;-5.674;2022-07-23T15:02:41;6.60;;;1.42;;
72437;SDS011;60444;43.534;-5.674;2022-07-23T15:05:07;6.50;;;1.60;;
72437;SDS011;60444;43.534;-5.674;2022-07-23T15:07:33;6.22;;;1.60;;
72437;SDS011;60444;43.534;-5.674;2022-07-23T15:09:58;5.50;;;1.60;;
72437;SDS011;60444;43.534;-5.674;2022-07-23T15:12:24;6.82;;;1.90;;
72437;SDS011;60444;43.534;-5.674;2022-07-23T15:14:50;8.77;;;1.90;;
72437;SDS011;60444;43.534;-5.674;2022-07-23T15:17:15;6.03;;;1.63;;
72437;SDS011;60444;43.534;-5.674;2022-07-23T15:19:41;5.68;;;1.77;;